sensor_id;sensor_type;location;lat;lon;timestamp;P1;durP1;ratioP1;P2;durP2;ratioP2
19137;SDS011;68178;52.188;5.598;2023-07-28T00:01:30;35.80;;;24.25;;
19137;SDS011;68178;52.188;5.598;2023-07-28T00:03:55;37.20;;;25.35;;
19137;SDS011;68178;52.188;5.598;2023-07-28T00:06:22;33.33;;;24.08;;
19137;SDS011;68178;52.188;5.598;2023-07-28T00:08:48;31.13;;;24.75;;
19137;SDS011;68178;52.188;5.598;2023-07-28T00:11:14;36.75;;;25.70;;
19137;SDS011;68178;52.188;5.598;2023-07-28T00:13:40;32.85;;;24.63;;
19137;SDS011;68178;52.188;5.598;2023-07-28T00:16:07;35.00;;;24.30;;
19137;SDS011;68178;52.188;5.598;2023-07-28T00:18:33;36.95;;;25.73;;
19137;SDS011;68178;52.188;5.598;2023-07-28T00:20:59;35.20;;;25.67;;
19137;SDS011;68178;52.188;5.598;2023-07-28T00:23:25;37.80;;;26.08;;
19137;SDS011;68178;52.188;5.598;2023-07-28T00:25:51;35.47;;;25.20;;
19137;SDS011;68178;52.188;5.598;2023-07-28T00:28:16;37.22;;;26.05;;
19137;SDS011;68178;52.188;5.598;2023-07-28T00:30:42;38.83;;;26.30;;
19137;SDS011;68178;52.188;5.598;2023-07-28T00:33:08;34.95;;;27.13;;
19137;SDS011;68178;52.188;5.598;2023-07-28T00:35:33;36.83;;;27.52;;
19137;SDS011;68178;52.188;5.598;2023-07-28T00:37:59;37.97;;;27.60;;
19137;SDS011;68178;52.188;5.598;2023-07-28T00:40:24;40.13;;;27.98;;
19137;SDS011;68178;52.188;5.598;2023-07-28T00:42:50;38.55;;;29.63;;
19137;SDS011;68178;52.188;5.598;2023-07-28T00:45:16;39.03;;;28.85;;
19137;SDS011;68178;52.188;5.598;2023-07-28T00:47:41;37.65;;;28.30;;
19137;SDS011;68178;52.188;5.598;2023-07-28T00:50:10;37.42;;;29.45;;
19137;SDS011;68178;52.188;5.598;2023-07-28T00:52:37;34.63;;;27.98;;
19137;SDS011;68178;52.188;5.598;2023-07-28T00:55:03;34.53;;;27.80;;
19137;SDS011;68178;52.188;5.598;2023-07-28T00:57:30;34.67;;;27.27;;
19137;SDS011;68178;52.188;5.598;2023-07-28T00:59:56;37.88;;;28.67;;
19137;SDS011;68178;52.188;5.598;2023-07-28T01:02:22;37.45;;;26.55;;
19137;SDS011;68178;52.188;5.598;2023-07-28T01:04:48;38.33;;;27.73;;
19137;SDS011;68178;52.188;5.598;2023-07-28T01:07:16;41.83;;;27.05;;
19137;SDS011;68178;52.188;5.598;2023-07-28T01:10:02;37.25;;;27.35;;
19137;SDS011;68178;52.188;5.598;2023-07-28T01:12:31;35.88;;;27.17;;
19137;SDS011;68178;52.188;5.598;2023-07-28T01:14:57;33.88;;;26.38;;
19137;SDS011;68178;52.188;5.598;2023-07-28T01:17:23;32.45;;;25.00;;
19137;SDS011;68178;52.188;5.598;2023-07-28T01:19:51;35.17;;;25.80;;
19137;SDS011;68178;52.188;5.598;2023-07-28T01:22:27;34.92;;;25.35;;
19137;SDS011;68178;52.188;5.598;2023-07-28T01:28:06;31.70;;;23.20;;
19137;SDS011;68178;52.188;5.598;2023-07-28T01:30:33;36.58;;;23.77;;
19137;SDS011;68178;52.188;5.598;2023-07-28T01:32:59;34.88;;;23.20;;
19137;SDS011;68178;52.188;5.598;2023-07-28T01:35:25;36.15;;;22.83;;
19137;SDS011;68178;52.188;5.598;2023-07-28T01:37:51;32.17;;;23.33;;
19137;SDS011;68178;52.188;5.598;2023-07-28T01:40:17;34.05;;;22.98;;
19137;SDS011;68178;52.188;5.598;2023-07-28T01:42:43;38.92;;;22.90;;
19137;SDS011;68178;52.188;5.598;2023-07-28T01:45:11;37.90;;;23.00;;
19137;SDS011;68178;52.188;5.598;2023-07-28T01:47:37;34.53;;;23.70;;
19137;SDS011;68178;52.188;5.598;2023-07-28T01:50:03;31.45;;;24.00;;
19137;SDS011;68178;52.188;5.598;2023-07-28T01:52:29;33.08;;;22.00;;
19137;SDS011;68178;52.188;5.598;2023-07-28T01:54:54;40.85;;;24.98;;
19137;SDS011;68178;52.188;5.598;2023-07-28T01:57:20;34.83;;;23.30;;
19137;SDS011;68178;52.188;5.598;2023-07-28T01:59:46;38.13;;;23.83;;
19137;SDS011;68178;52.188;5.598;2023-07-28T02:02:12;27.98;;;20.98;;
19137;SDS011;68178;52.188;5.598;2023-07-28T02:04:37;37.75;;;23.25;;
19137;SDS011;68178;52.188;5.598;2023-07-28T02:07:03;34.33;;;23.08;;
19137;SDS011;68178;52.188;5.598;2023-07-28T02:09:29;35.22;;;23.23;;
19137;SDS011;68178;52.188;5.598;2023-07-28T02:11:54;35.53;;;22.73;;
19137;SDS011;68178;52.188;5.598;2023-07-28T02:14:20;34.80;;;23.30;;
19137;SDS011;68178;52.188;5.598;2023-07-28T02:16:45;37.22;;;22.45;;
19137;SDS011;68178;52.188;5.598;2023-07-28T02:19:11;33.45;;;23.35;;
19137;SDS011;68178;52.188;5.598;2023-07-28T02:21:37;31.70;;;21.48;;
19137;SDS011;68178;52.188;5.598;2023-07-28T02:24:02;39.47;;;22.60;;
19137;SDS011;68178;52.188;5.598;2023-07-28T02:26:28;32.47;;;21.10;;
19137;SDS011;68178;52.188;5.598;2023-07-28T02:28:53;40.10;;;23.02;;
19137;SDS011;68178;52.188;5.598;2023-07-28T02:31:19;35.97;;;22.73;;
19137;SDS011;68178;52.188;5.598;2023-07-28T02:33:44;40.45;;;23.23;;
19137;SDS011;68178;52.188;5.598;2023-07-28T02:36:10;40.38;;;24.75;;
19137;SDS011;68178;52.188;5.598;2023-07-28T02:38:36;36.50;;;21.90;;
19137;SDS011;68178;52.188;5.598;2023-07-28T02:41:01;43.00;;;23.25;;
19137;SDS011;68178;52.188;5.598;2023-07-28T02:43:28;39.08;;;23.77;;
19137;SDS011;68178;52.188;5.598;2023-07-28T02:45:55;38.10;;;22.60;;
19137;SDS011;68178;52.188;5.598;2023-07-28T02:48:22;36.03;;;21.95;;
19137;SDS011;68178;52.188;5.598;2023-07-28T02:50:48;36.45;;;22.10;;
19137;SDS011;68178;52.188;5.598;2023-07-28T02:53:15;32.88;;;21.38;;
19137;SDS011;68178;52.188;5.598;2023-07-28T02:55:41;35.47;;;21.63;;
19137;SDS011;68178;52.188;5.598;2023-07-28T02:58:07;37.90;;;22.92;;
19137;SDS011;68178;52.188;5.598;2023-07-28T03:00:33;39.28;;;23.73;;
19137;SDS011;68178;52.188;5.598;2023-07-28T03:03:02;37.45;;;24.17;;
19137;SDS011;68178;52.188;5.598;2023-07-28T03:05:27;39.05;;;24.90;;
19137;SDS011;68178;52.188;5.598;2023-07-28T03:07:53;45.80;;;25.70;;
19137;SDS011;68178;52.188;5.598;2023-07-28T03:10:18;37.88;;;24.02;;
19137;SDS011;68178;52.188;5.598;2023-07-28T03:12:44;46.60;;;26.85;;
19137;SDS011;68178;52.188;5.598;2023-07-28T03:15:09;40.92;;;26.50;;
19137;SDS011;68178;52.188;5.598;2023-07-28T03:17:35;48.60;;;27.88;;
19137;SDS011;68178;52.188;5.598;2023-07-28T03:20:01;48.40;;;27.38;;
19137;SDS011;68178;52.188;5.598;2023-07-28T03:22:26;41.67;;;26.08;;
19137;SDS011;68178;52.188;5.598;2023-07-28T03:24:52;48.78;;;27.17;;
19137;SDS011;68178;52.188;5.598;2023-07-28T03:27:17;47.20;;;28.58;;
19137;SDS011;68178;52.188;5.598;2023-07-28T03:29:43;49.40;;;26.90;;
19137;SDS011;68178;52.188;5.598;2023-07-28T03:32:08;46.88;;;28.15;;
19137;SDS011;68178;52.188;5.598;2023-07-28T03:34:34;54.65;;;30.25;;
19137;SDS011;68178;52.188;5.598;2023-07-28T03:37:00;52.65;;;28.83;;
19137;SDS011;68178;52.188;5.598;2023-07-28T03:39:25;61.92;;;30.95;;
19137;SDS011;68178;52.188;5.598;2023-07-28T03:41:51;51.05;;;29.60;;
19137;SDS011;68178;52.188;5.598;2023-07-28T03:44:16;60.65;;;31.65;;
19137;SDS011;68178;52.188;5.598;2023-07-28T03:46:44;49.80;;;29.33;;
19137;SDS011;68178;52.188;5.598;2023-07-28T03:49:10;54.72;;;29.35;;
19137;SDS011;68178;52.188;5.598;2023-07-28T03:51:35;50.28;;;28.60;;
19137;SDS011;68178;52.188;5.598;2023-07-28T03:54:01;49.00;;;30.15;;
19137;SDS011;68178;52.188;5.598;2023-07-28T03:56:27;57.35;;;31.88;;
19137;SDS011;68178;52.188;5.598;2023-07-28T03:58:53;53.60;;;31.30;;
19137;SDS011;68178;52.188;5.598;2023-07-28T04:01:19;53.75;;;30.00;;
19137;SDS011;68178;52.188;5.598;2023-07-28T04:03:46;55.53;;;30.85;;
19137;SDS011;68178;52.188;5.598;2023-07-28T04:06:12;60.15;;;32.38;;
19137;SDS011;68178;52.188;5.598;2023-07-28T04:08:38;59.33;;;30.58;;
19137;SDS011;68178;52.188;5.598;2023-07-28T04:11:04;61.50;;;32.13;;
19137;SDS011;68178;52.188;5.598;2023-07-28T04:13:30;62.45;;;30.90;;
19137;SDS011;68178;52.188;5.598;2023-07-28T04:15:55;56.95;;;30.88;;
19137;SDS011;68178;52.188;5.598;2023-07-28T04:18:21;53.55;;;30.73;;
19137;SDS011;68178;52.188;5.598;2023-07-28T04:20:46;62.10;;;31.73;;
19137;SDS011;68178;52.188;5.598;2023-07-28T04:23:12;60.75;;;31.40;;
19137;SDS011;68178;52.188;5.598;2023-07-28T04:25:37;65.65;;;32.75;;
19137;SDS011;68178;52.188;5.598;2023-07-28T04:28:06;57.83;;;32.67;;
19137;SDS011;68178;52.188;5.598;2023-07-28T04:30:32;55.25;;;31.67;;
19137;SDS011;68178;52.188;5.598;2023-07-28T04:32:57;69.25;;;34.00;;
19137;SDS011;68178;52.188;5.598;2023-07-28T04:35:23;62.42;;;33.08;;
19137;SDS011;68178;52.188;5.598;2023-07-28T04:37:49;60.80;;;32.53;;
19137;SDS011;68178;52.188;5.598;2023-07-28T04:40:14;71.68;;;34.65;;
19137;SDS011;68178;52.188;5.598;2023-07-28T04:42:40;60.50;;;32.25;;
19137;SDS011;68178;52.188;5.598;2023-07-28T04:45:06;64.97;;;32.15;;
19137;SDS011;68178;52.188;5.598;2023-07-28T04:47:32;72.93;;;32.42;;
19137;SDS011;68178;52.188;5.598;2023-07-28T04:49:57;68.32;;;34.47;;
19137;SDS011;68178;52.188;5.598;2023-07-28T04:52:23;72.00;;;36.08;;
19137;SDS011;68178;52.188;5.598;2023-07-28T04:54:49;67.25;;;33.60;;
19137;SDS011;68178;52.188;5.598;2023-07-28T04:57:14;68.47;;;34.38;;
19137;SDS011;68178;52.188;5.598;2023-07-28T04:59:40;75.55;;;36.30;;
19137;SDS011;68178;52.188;5.598;2023-07-28T05:02:06;71.03;;;34.33;;
19137;SDS011;68178;52.188;5.598;2023-07-28T05:04:31;76.53;;;35.10;;
19137;SDS011;68178;52.188;5.598;2023-07-28T05:06:57;71.90;;;35.42;;
19137;SDS011;68178;52.188;5.598;2023-07-28T05:09:23;71.75;;;33.67;;
19137;SDS011;68178;52.188;5.598;2023-07-28T05:11:48;67.75;;;33.17;;
19137;SDS011;68178;52.188;5.598;2023-07-28T05:14:14;73.95;;;35.53;;
19137;SDS011;68178;52.188;5.598;2023-07-28T05:16:40;65.70;;;33.53;;
19137;SDS011;68178;52.188;5.598;2023-07-28T05:19:06;78.72;;;34.30;;
19137;SDS011;68178;52.188;5.598;2023-07-28T05:21:32;68.13;;;32.55;;
19137;SDS011;68178;52.188;5.598;2023-07-28T05:23:58;67.20;;;32.97;;
19137;SDS011;68178;52.188;5.598;2023-07-28T05:26:23;68.63;;;32.85;;
19137;SDS011;68178;52.188;5.598;2023-07-28T05:28:49;60.53;;;32.03;;
19137;SDS011;68178;52.188;5.598;2023-07-28T05:31:15;63.17;;;32.03;;
19137;SDS011;68178;52.188;5.598;2023-07-28T05:33:41;69.88;;;33.13;;
19137;SDS011;68178;52.188;5.598;2023-07-28T05:36:07;63.38;;;33.17;;
19137;SDS011;68178;52.188;5.598;2023-07-28T05:38:32;69.32;;;33.65;;
19137;SDS011;68178;52.188;5.598;2023-07-28T05:40:58;66.18;;;32.00;;
19137;SDS011;68178;52.188;5.598;2023-07-28T05:43:32;65.97;;;32.97;;
19137;SDS011;68178;52.188;5.598;2023-07-28T05:45:58;61.55;;;30.60;;
19137;SDS011;68178;52.188;5.598;2023-07-28T05:48:25;65.10;;;32.80;;
19137;SDS011;68178;52.188;5.598;2023-07-28T05:50:51;70.82;;;32.33;;
19137;SDS011;68178;52.188;5.598;2023-07-28T05:53:18;60.38;;;30.13;;
19137;SDS011;68178;52.188;5.598;2023-07-28T05:55:45;70.45;;;32.65;;
19137;SDS011;68178;52.188;5.598;2023-07-28T05:58:11;68.50;;;32.55;;
19137;SDS011;68178;52.188;5.598;2023-07-28T06:00:38;56.97;;;31.05;;
19137;SDS011;68178;52.188;5.598;2023-07-28T06:03:05;59.88;;;33.42;;
19137;SDS011;68178;52.188;5.598;2023-07-28T06:05:31;53.28;;;28.30;;
19137;SDS011;68178;52.188;5.598;2023-07-28T06:07:57;52.58;;;28.38;;
19137;SDS011;68178;52.188;5.598;2023-07-28T06:10:22;53.67;;;29.98;;
19137;SDS011;68178;52.188;5.598;2023-07-28T06:12:48;51.90;;;29.75;;
19137;SDS011;68178;52.188;5.598;2023-07-28T06:15:14;61.22;;;30.90;;
19137;SDS011;68178;52.188;5.598;2023-07-28T06:17:39;50.28;;;28.00;;
19137;SDS011;68178;52.188;5.598;2023-07-28T06:20:05;45.65;;;25.77;;
19137;SDS011;68178;52.188;5.598;2023-07-28T06:22:31;41.95;;;25.83;;
19137;SDS011;68178;52.188;5.598;2023-07-28T06:24:58;39.13;;;25.10;;
19137;SDS011;68178;52.188;5.598;2023-07-28T06:27:23;41.53;;;25.42;;
19137;SDS011;68178;52.188;5.598;2023-07-28T06:29:49;46.30;;;25.58;;
19137;SDS011;68178;52.188;5.598;2023-07-28T06:32:14;37.50;;;23.70;;
19137;SDS011;68178;52.188;5.598;2023-07-28T06:34:40;39.75;;;24.25;;
19137;SDS011;68178;52.188;5.598;2023-07-28T06:37:06;33.15;;;23.38;;
19137;SDS011;68178;52.188;5.598;2023-07-28T06:39:32;38.13;;;24.52;;
19137;SDS011;68178;52.188;5.598;2023-07-28T06:41:58;37.05;;;24.75;;
19137;SDS011;68178;52.188;5.598;2023-07-28T06:44:23;38.15;;;24.40;;
19137;SDS011;68178;52.188;5.598;2023-07-28T06:46:49;38.58;;;24.50;;
19137;SDS011;68178;52.188;5.598;2023-07-28T06:49:15;38.22;;;24.63;;
19137;SDS011;68178;52.188;5.598;2023-07-28T06:51:41;34.70;;;22.85;;
19137;SDS011;68178;52.188;5.598;2023-07-28T06:54:06;32.67;;;23.23;;
19137;SDS011;68178;52.188;5.598;2023-07-28T06:56:37;37.70;;;24.08;;
19137;SDS011;68178;52.188;5.598;2023-07-28T06:59:06;36.38;;;23.77;;
19137;SDS011;68178;52.188;5.598;2023-07-28T07:01:33;33.97;;;23.30;;
19137;SDS011;68178;52.188;5.598;2023-07-28T07:03:58;33.88;;;22.92;;
19137;SDS011;68178;52.188;5.598;2023-07-28T07:06:25;38.65;;;24.83;;
19137;SDS011;68178;52.188;5.598;2023-07-28T07:08:50;34.33;;;22.73;;
19137;SDS011;68178;52.188;5.598;2023-07-28T07:11:16;37.15;;;22.77;;
19137;SDS011;68178;52.188;5.598;2023-07-28T07:13:41;34.45;;;23.40;;
19137;SDS011;68178;52.188;5.598;2023-07-28T07:16:16;32.08;;;23.45;;
19137;SDS011;68178;52.188;5.598;2023-07-28T07:18:42;36.80;;;23.55;;
19137;SDS011;68178;52.188;5.598;2023-07-28T07:21:09;36.83;;;24.42;;
19137;SDS011;68178;52.188;5.598;2023-07-28T07:23:35;38.08;;;24.77;;
19137;SDS011;68178;52.188;5.598;2023-07-28T07:26:01;35.00;;;24.05;;
19137;SDS011;68178;52.188;5.598;2023-07-28T07:28:26;33.90;;;24.33;;
19137;SDS011;68178;52.188;5.598;2023-07-28T07:30:53;33.47;;;23.70;;
19137;SDS011;68178;52.188;5.598;2023-07-28T07:33:19;33.40;;;24.02;;
19137;SDS011;68178;52.188;5.598;2023-07-28T07:35:45;37.85;;;25.05;;
19137;SDS011;68178;52.188;5.598;2023-07-28T07:38:10;38.10;;;26.95;;
19137;SDS011;68178;52.188;5.598;2023-07-28T07:40:36;35.78;;;24.73;;
19137;SDS011;68178;52.188;5.598;2023-07-28T07:43:02;35.38;;;24.70;;
19137;SDS011;68178;52.188;5.598;2023-07-28T07:45:29;32.55;;;25.08;;
19137;SDS011;68178;52.188;5.598;2023-07-28T07:47:55;39.65;;;26.90;;
19137;SDS011;68178;52.188;5.598;2023-07-28T07:50:21;32.58;;;24.52;;
19137;SDS011;68178;52.188;5.598;2023-07-28T07:52:47;41.25;;;25.73;;
19137;SDS011;68178;52.188;5.598;2023-07-28T07:55:13;36.75;;;27.02;;
19137;SDS011;68178;52.188;5.598;2023-07-28T07:57:39;45.60;;;26.80;;
19137;SDS011;68178;52.188;5.598;2023-07-28T08:00:05;40.60;;;27.15;;
19137;SDS011;68178;52.188;5.598;2023-07-28T08:02:31;39.28;;;28.27;;
19137;SDS011;68178;52.188;5.598;2023-07-28T08:04:57;39.55;;;27.58;;
19137;SDS011;68178;52.188;5.598;2023-07-28T08:07:22;37.25;;;26.33;;
19137;SDS011;68178;52.188;5.598;2023-07-28T08:09:50;42.58;;;27.50;;
19137;SDS011;68178;52.188;5.598;2023-07-28T08:12:16;35.75;;;26.52;;
19137;SDS011;68178;52.188;5.598;2023-07-28T08:14:42;38.28;;;25.88;;
19137;SDS011;68178;52.188;5.598;2023-07-28T08:17:08;35.55;;;25.98;;
19137;SDS011;68178;52.188;5.598;2023-07-28T08:19:34;41.83;;;25.42;;
19137;SDS011;68178;52.188;5.598;2023-07-28T08:22:01;30.48;;;23.90;;
19137;SDS011;68178;52.188;5.598;2023-07-28T08:24:28;37.10;;;22.98;;
19137;SDS011;68178;52.188;5.598;2023-07-28T08:26:54;30.77;;;22.40;;
19137;SDS011;68178;52.188;5.598;2023-07-28T08:29:19;29.30;;;22.52;;
19137;SDS011;68178;52.188;5.598;2023-07-28T08:31:45;33.50;;;23.48;;
19137;SDS011;68178;52.188;5.598;2023-07-28T08:34:10;31.30;;;23.67;;
19137;SDS011;68178;52.188;5.598;2023-07-28T08:36:36;27.75;;;21.08;;
19137;SDS011;68178;52.188;5.598;2023-07-28T08:39:02;30.30;;;20.95;;
19137;SDS011;68178;52.188;5.598;2023-07-28T08:41:28;28.75;;;21.55;;
19137;SDS011;68178;52.188;5.598;2023-07-28T08:43:54;26.02;;;20.52;;
19137;SDS011;68178;52.188;5.598;2023-07-28T08:46:20;29.02;;;19.95;;
19137;SDS011;68178;52.188;5.598;2023-07-28T08:48:45;25.15;;;20.45;;
19137;SDS011;68178;52.188;5.598;2023-07-28T08:51:12;26.95;;;17.85;;
19137;SDS011;68178;52.188;5.598;2023-07-28T08:53:38;25.13;;;17.98;;
19137;SDS011;68178;52.188;5.598;2023-07-28T08:56:04;26.92;;;17.50;;
19137;SDS011;68178;52.188;5.598;2023-07-28T08:58:30;23.55;;;16.80;;
19137;SDS011;68178;52.188;5.598;2023-07-28T09:00:55;21.65;;;14.27;;
19137;SDS011;68178;52.188;5.598;2023-07-28T09:03:25;16.08;;;10.57;;
19137;SDS011;68178;52.188;5.598;2023-07-28T09:05:53;15.77;;;10.07;;
19137;SDS011;68178;52.188;5.598;2023-07-28T09:08:25;13.90;;;9.45;;
19137;SDS011;68178;52.188;5.598;2023-07-28T09:10:50;13.20;;;8.85;;
19137;SDS011;68178;52.188;5.598;2023-07-28T09:13:18;11.10;;;7.28;;
19137;SDS011;68178;52.188;5.598;2023-07-28T09:15:45;16.58;;;8.32;;
19137;SDS011;68178;52.188;5.598;2023-07-28T09:18:12;10.18;;;6.90;;
19137;SDS011;68178;52.188;5.598;2023-07-28T09:20:40;12.98;;;7.50;;
19137;SDS011;68178;52.188;5.598;2023-07-28T09:23:06;13.40;;;6.60;;
19137;SDS011;68178;52.188;5.598;2023-07-28T09:25:33;18.33;;;7.53;;
19137;SDS011;68178;52.188;5.598;2023-07-28T09:27:59;14.13;;;7.72;;
19137;SDS011;68178;52.188;5.598;2023-07-28T09:30:25;10.60;;;7.15;;
19137;SDS011;68178;52.188;5.598;2023-07-28T09:32:52;14.15;;;7.53;;
19137;SDS011;68178;52.188;5.598;2023-07-28T09:35:19;10.85;;;6.75;;
19137;SDS011;68178;52.188;5.598;2023-07-28T09:37:47;10.88;;;6.95;;
19137;SDS011;68178;52.188;5.598;2023-07-28T09:40:19;11.75;;;6.85;;
19137;SDS011;68178;52.188;5.598;2023-07-28T09:42:46;14.00;;;6.90;;
19137;SDS011;68178;52.188;5.598;2023-07-28T09:45:16;10.65;;;7.18;;
19137;SDS011;68178;52.188;5.598;2023-07-28T09:47:46;13.20;;;6.30;;
19137;SDS011;68178;52.188;5.598;2023-07-28T09:50:18;11.32;;;6.13;;
19137;SDS011;68178;52.188;5.598;2023-07-28T09:52:47;9.60;;;5.47;;
19137;SDS011;68178;52.188;5.598;2023-07-28T09:55:17;8.98;;;5.70;;
19137;SDS011;68178;52.188;5.598;2023-07-28T10:00:16;12.15;;;5.53;;
19137;SDS011;68178;52.188;5.598;2023-07-28T10:02:44;10.38;;;4.65;;
19137;SDS011;68178;52.188;5.598;2023-07-28T10:05:10;6.32;;;4.72;;
19137;SDS011;68178;52.188;5.598;2023-07-28T10:07:38;13.15;;;5.43;;
19137;SDS011;68178;52.188;5.598;2023-07-28T10:10:05;5.68;;;4.53;;
19137;SDS011;68178;52.188;5.598;2023-07-28T10:12:40;8.07;;;5.13;;
19137;SDS011;68178;52.188;5.598;2023-07-28T10:15:07;4.82;;;4.30;;
19137;SDS011;68178;52.188;5.598;2023-07-28T10:17:36;5.45;;;4.35;;
19137;SDS011;68178;52.188;5.598;2023-07-28T10:20:05;8.15;;;4.13;;
19137;SDS011;68178;52.188;5.598;2023-07-28T10:22:42;5.13;;;4.40;;
19137;SDS011;68178;52.188;5.598;2023-07-28T10:25:09;8.38;;;4.90;;
19137;SDS011;68178;52.188;5.598;2023-07-28T10:27:36;8.95;;;4.03;;
19137;SDS011;68178;52.188;5.598;2023-07-28T10:30:04;8.25;;;4.10;;
19137;SDS011;68178;52.188;5.598;2023-07-28T10:32:44;5.95;;;3.85;;
19137;SDS011;68178;52.188;5.598;2023-07-28T10:37:43;4.93;;;4.25;;
19137;SDS011;68178;52.188;5.598;2023-07-28T10:40:29;6.25;;;4.82;;
19137;SDS011;68178;52.188;5.598;2023-07-28T10:42:56;6.75;;;5.30;;
19137;SDS011;68178;52.188;5.598;2023-07-28T10:45:23;8.75;;;5.70;;
19137;SDS011;68178;52.188;5.598;2023-07-28T10:47:51;5.68;;;5.18;;
19137;SDS011;68178;52.188;5.598;2023-07-28T10:50:17;8.82;;;5.30;;
19137;SDS011;68178;52.188;5.598;2023-07-28T10:52:44;6.22;;;5.35;;
19137;SDS011;68178;52.188;5.598;2023-07-28T10:55:11;7.05;;;5.30;;
19137;SDS011;68178;52.188;5.598;2023-07-28T10:57:44;7.50;;;5.45;;
19137;SDS011;68178;52.188;5.598;2023-07-28T11:00:11;6.28;;;4.50;;
19137;SDS011;68178;52.188;5.598;2023-07-28T11:02:42;6.63;;;4.95;;
19137;SDS011;68178;52.188;5.598;2023-07-28T11:05:12;5.88;;;4.53;;
19137;SDS011;68178;52.188;5.598;2023-07-28T11:07:44;7.28;;;4.97;;
19137;SDS011;68178;52.188;5.598;2023-07-28T11:10:10;4.78;;;4.13;;
19137;SDS011;68178;52.188;5.598;2023-07-28T11:12:39;5.40;;;4.40;;
19137;SDS011;68178;52.188;5.598;2023-07-28T11:15:07;5.95;;;5.15;;
19137;SDS011;68178;52.188;5.598;2023-07-28T11:17:36;6.38;;;4.65;;
19137;SDS011;68178;52.188;5.598;2023-07-28T11:20:17;8.05;;;5.10;;
19137;SDS011;68178;52.188;5.598;2023-07-28T11:22:56;6.57;;;5.50;;
19137;SDS011;68178;52.188;5.598;2023-07-28T11:25:24;5.35;;;4.85;;
19137;SDS011;68178;52.188;5.598;2023-07-28T11:27:53;7.80;;;5.35;;
19137;SDS011;68178;52.188;5.598;2023-07-28T11:30:20;7.00;;;4.90;;
19137;SDS011;68178;52.188;5.598;2023-07-28T11:32:47;8.02;;;5.43;;
19137;SDS011;68178;52.188;5.598;2023-07-28T11:35:14;7.10;;;5.40;;
19137;SDS011;68178;52.188;5.598;2023-07-28T11:37:42;8.63;;;6.65;;
19137;SDS011;68178;52.188;5.598;2023-07-28T11:40:10;11.27;;;7.15;;
19137;SDS011;68178;52.188;5.598;2023-07-28T11:42:54;10.88;;;6.50;;
19137;SDS011;68178;52.188;5.598;2023-07-28T11:45:21;8.68;;;5.60;;
19137;SDS011;68178;52.188;5.598;2023-07-28T11:50:43;7.05;;;6.03;;
19137;SDS011;68178;52.188;5.598;2023-07-28T11:53:10;6.63;;;5.75;;
19137;SDS011;68178;52.188;5.598;2023-07-28T11:55:36;9.10;;;6.72;;
19137;SDS011;68178;52.188;5.598;2023-07-28T11:58:03;10.63;;;7.20;;
19137;SDS011;68178;52.188;5.598;2023-07-28T12:00:31;7.72;;;6.32;;
19137;SDS011;68178;52.188;5.598;2023-07-28T12:03:01;11.43;;;7.22;;
19137;SDS011;68178;52.188;5.598;2023-07-28T12:05:31;10.00;;;7.60;;
19137;SDS011;68178;52.188;5.598;2023-07-28T12:08:01;9.30;;;7.15;;
19137;SDS011;68178;52.188;5.598;2023-07-28T12:10:28;10.13;;;7.55;;
19137;SDS011;68178;52.188;5.598;2023-07-28T12:12:54;8.45;;;7.55;;
19137;SDS011;68178;52.188;5.598;2023-07-28T12:23:12;9.05;;;8.15;;
19137;SDS011;68178;52.188;5.598;2023-07-28T12:25:40;9.15;;;8.10;;
19137;SDS011;68178;52.188;5.598;2023-07-28T12:28:06;9.18;;;8.15;;
19137;SDS011;68178;52.188;5.598;2023-07-28T12:30:33;9.05;;;7.80;;
19137;SDS011;68178;52.188;5.598;2023-07-28T12:32:59;8.15;;;5.00;;
19137;SDS011;68178;52.188;5.598;2023-07-28T12:35:25;7.03;;;4.88;;
19137;SDS011;68178;52.188;5.598;2023-07-28T12:37:55;6.20;;;5.05;;
19137;SDS011;68178;52.188;5.598;2023-07-28T12:40:23;7.45;;;5.63;;
19137;SDS011;68178;52.188;5.598;2023-07-28T12:42:48;7.53;;;5.93;;
19137;SDS011;68178;52.188;5.598;2023-07-28T12:45:14;7.63;;;5.45;;
19137;SDS011;68178;52.188;5.598;2023-07-28T12:47:43;8.20;;;6.05;;
19137;SDS011;68178;52.188;5.598;2023-07-28T12:50:09;8.40;;;6.07;;
19137;SDS011;68178;52.188;5.598;2023-07-28T12:52:35;8.70;;;5.75;;
19137;SDS011;68178;52.188;5.598;2023-07-28T12:55:01;10.23;;;6.35;;
19137;SDS011;68178;52.188;5.598;2023-07-28T12:57:27;9.40;;;6.13;;
19137;SDS011;68178;52.188;5.598;2023-07-28T12:59:53;10.00;;;6.88;;
19137;SDS011;68178;52.188;5.598;2023-07-28T13:02:18;7.65;;;6.57;;
19137;SDS011;68178;52.188;5.598;2023-07-28T13:04:44;9.88;;;6.43;;
19137;SDS011;68178;52.188;5.598;2023-07-28T13:07:09;6.50;;;5.90;;
19137;SDS011;68178;52.188;5.598;2023-07-28T13:09:35;7.78;;;6.57;;
19137;SDS011;68178;52.188;5.598;2023-07-28T13:12:00;7.30;;;6.15;;
19137;SDS011;68178;52.188;5.598;2023-07-28T13:14:26;6.82;;;5.47;;
19137;SDS011;68178;52.188;5.598;2023-07-28T13:16:52;7.75;;;6.38;;
19137;SDS011;68178;52.188;5.598;2023-07-28T13:19:19;6.93;;;5.93;;
19137;SDS011;68178;52.188;5.598;2023-07-28T13:21:44;7.40;;;6.50;;
19137;SDS011;68178;52.188;5.598;2023-07-28T13:24:10;8.80;;;6.93;;
19137;SDS011;68178;52.188;5.598;2023-07-28T13:26:36;7.15;;;6.47;;
19137;SDS011;68178;52.188;5.598;2023-07-28T13:29:03;7.80;;;6.68;;
19137;SDS011;68178;52.188;5.598;2023-07-28T13:31:33;10.43;;;8.15;;
19137;SDS011;68178;52.188;5.598;2023-07-28T13:33:59;9.07;;;6.45;;
19137;SDS011;68178;52.188;5.598;2023-07-28T13:36:28;6.93;;;5.53;;
19137;SDS011;68178;52.188;5.598;2023-07-28T13:38:59;7.22;;;5.20;;
19137;SDS011;68178;52.188;5.598;2023-07-28T13:41:24;9.52;;;5.72;;
19137;SDS011;68178;52.188;5.598;2023-07-28T13:43:50;6.70;;;5.22;;
19137;SDS011;68178;52.188;5.598;2023-07-28T13:46:16;6.78;;;5.63;;
19137;SDS011;68178;52.188;5.598;2023-07-28T13:48:41;7.22;;;5.70;;
19137;SDS011;68178;52.188;5.598;2023-07-28T13:51:07;5.97;;;5.47;;
19137;SDS011;68178;52.188;5.598;2023-07-28T13:53:33;7.93;;;5.57;;
19137;SDS011;68178;52.188;5.598;2023-07-28T13:55:59;6.75;;;6.10;;
19137;SDS011;68178;52.188;5.598;2023-07-28T13:58:25;5.72;;;5.25;;
19137;SDS011;68178;52.188;5.598;2023-07-28T14:00:51;6.65;;;4.70;;
19137;SDS011;68178;52.188;5.598;2023-07-28T14:03:17;7.47;;;5.22;;
19137;SDS011;68178;52.188;5.598;2023-07-28T14:05:42;5.82;;;4.80;;
19137;SDS011;68178;52.188;5.598;2023-07-28T14:08:11;6.85;;;5.38;;
19137;SDS011;68178;52.188;5.598;2023-07-28T14:10:37;7.65;;;5.68;;
19137;SDS011;68178;52.188;5.598;2023-07-28T14:13:14;6.03;;;5.00;;
19137;SDS011;68178;52.188;5.598;2023-07-28T14:15:40;5.65;;;4.82;;
19137;SDS011;68178;52.188;5.598;2023-07-28T14:18:08;6.55;;;5.00;;
19137;SDS011;68178;52.188;5.598;2023-07-28T14:20:34;7.93;;;5.05;;
19137;SDS011;68178;52.188;5.598;2023-07-28T14:23:00;5.03;;;4.50;;
19137;SDS011;68178;52.188;5.598;2023-07-28T14:25:27;5.22;;;4.72;;
19137;SDS011;68178;52.188;5.598;2023-07-28T14:27:53;6.07;;;5.47;;
19137;SDS011;68178;52.188;5.598;2023-07-28T14:30:20;5.10;;;4.70;;
19137;SDS011;68178;52.188;5.598;2023-07-28T14:32:46;5.85;;;5.15;;
19137;SDS011;68178;52.188;5.598;2023-07-28T14:35:11;6.57;;;5.28;;
19137;SDS011;68178;52.188;5.598;2023-07-28T14:37:37;7.70;;;5.30;;
19137;SDS011;68178;52.188;5.598;2023-07-28T14:40:03;5.28;;;4.75;;
19137;SDS011;68178;52.188;5.598;2023-07-28T14:42:29;3.90;;;3.58;;
19137;SDS011;68178;52.188;5.598;2023-07-28T14:44:55;5.95;;;4.18;;
19137;SDS011;68178;52.188;5.598;2023-07-28T14:47:21;5.65;;;5.03;;